createdAt,value
2019-02-22T00:00:45.849Z,99.90
2019-02-22T00:03:11.961Z,99.90
2019-02-22T00:05:38.004Z,99.90
2019-02-22T00:08:04.003Z,99.90
2019-02-22T00:10:30.024Z,99.90
2019-02-22T00:12:56.019Z,99.90
2019-02-22T00:15:22.038Z,99.90
2019-02-22T00:17:48.290Z,99.90
2019-02-22T00:20:14.305Z,99.90
2019-02-22T00:22:40.526Z,99.90
2019-02-22T00:25:06.625Z,99.90
2019-02-22T00:27:32.873Z,99.90
2019-02-22T00:29:58.877Z,99.90
2019-02-22T00:32:25.134Z,99.90
2019-02-22T00:34:51.134Z,99.90
2019-02-22T00:37:17.163Z,99.90
2019-02-22T00:42:27.497Z,99.90
2019-02-22T00:44:53.499Z,99.90
2019-02-22T00:47:19.786Z,99.90
2019-02-22T00:49:46.013Z,99.90
2019-02-22T00:52:12.130Z,99.90
2019-02-22T00:54:38.129Z,99.90
2019-02-22T00:57:04.135Z,99.90
2019-02-22T00:59:30.157Z,99.90
2019-02-22T01:01:56.162Z,99.90
2019-02-22T01:04:22.409Z,99.90
2019-02-22T01:06:48.434Z,99.90
2019-02-22T01:09:14.762Z,99.90
2019-02-22T01:11:40.769Z,99.90
2019-02-22T01:14:06.777Z,99.90
2019-02-22T01:16:32.778Z,99.90
2019-02-22T01:18:58.790Z,99.90
2019-02-22T01:21:24.790Z,99.90
2019-02-22T01:23:51.066Z,99.90
2019-02-22T01:26:17.296Z,99.90
2019-02-22T01:28:43.302Z,99.90
2019-02-22T01:31:09.542Z,99.90
2019-02-22T01:33:35.546Z,99.90
2019-02-22T01:36:01.798Z,99.90
2019-02-22T01:38:28.028Z,99.90
2019-02-22T01:40:54.274Z,99.90
2019-02-22T01:43:20.278Z,99.90
2019-02-22T01:45:46.517Z,99.90
2019-02-22T01:48:12.515Z,99.90
2019-02-22T01:50:38.778Z,99.90
2019-02-22T01:53:04.779Z,99.90
2019-02-22T01:55:31.026Z,99.90
2019-02-22T01:57:57.077Z,99.90
2019-02-22T02:00:23.090Z,99.90
2019-02-22T02:02:49.211Z,99.90
2019-02-22T02:05:15.217Z,99.90
2019-02-22T02:07:41.334Z,99.90
2019-02-22T02:10:07.348Z,99.90
2019-02-22T02:12:33.357Z,99.90
2019-02-22T02:14:59.362Z,99.90
2019-02-22T02:17:25.369Z,99.90
2019-02-22T02:19:51.381Z,99.90
2019-02-22T02:22:17.407Z,99.90
2019-02-22T02:24:43.426Z,99.90
2019-02-22T02:27:09.439Z,99.90
2019-02-22T02:29:35.446Z,99.90
2019-02-22T02:32:01.458Z,99.90
2019-02-22T02:34:27.481Z,99.90
2019-02-22T02:36:53.502Z,99.90
2019-02-22T02:39:19.501Z,99.90
2019-02-22T02:41:45.498Z,99.90
2019-02-22T02:44:11.537Z,99.90
2019-02-22T02:46:37.538Z,99.90
2019-02-22T02:49:03.781Z,99.90
2019-02-22T02:51:29.799Z,99.90
2019-02-22T02:53:55.805Z,99.90
2019-02-22T02:56:22.040Z,99.90
2019-02-22T02:58:48.313Z,99.90
2019-02-22T03:01:14.319Z,99.90
2019-02-22T03:03:40.318Z,99.90
2019-02-22T03:06:08.239Z,99.90
2019-02-22T03:08:34.664Z,99.90
2019-02-22T03:11:01.110Z,99.90
2019-02-22T03:13:27.345Z,99.90
2019-02-22T03:15:53.354Z,99.90
2019-02-22T03:18:19.599Z,99.90
2019-02-22T03:20:45.632Z,99.90
2019-02-22T03:23:11.743Z,99.90
2019-02-22T03:25:37.999Z,99.90
2019-02-22T03:28:03.994Z,99.90
2019-02-22T03:30:30.031Z,99.90
2019-02-22T03:32:56.031Z,99.90
2019-02-22T03:35:22.067Z,99.90
2019-02-22T03:37:48.080Z,99.90
2019-02-22T03:40:14.104Z,99.90
2019-02-22T03:42:40.346Z,99.90
2019-02-22T03:45:07.274Z,99.90
2019-02-22T03:47:35.355Z,99.90
2019-02-22T03:50:01.198Z,99.90
2019-02-22T03:52:38.051Z,99.90
2019-02-22T03:55:05.865Z,99.90
2019-02-22T03:57:31.994Z,99.90
2019-02-22T03:59:58.101Z,99.90
2019-02-22T04:02:24.130Z,99.90
2019-02-22T04:04:50.142Z,99.90
2019-02-22T04:07:16.167Z,99.90
2019-02-22T04:09:42.400Z,99.90
2019-02-22T04:12:08.627Z,99.90
2019-02-22T04:14:34.859Z,99.90
2019-02-22T04:17:00.888Z,99.90
2019-02-22T04:19:26.903Z,99.90
2019-02-22T04:21:52.936Z,99.90
2019-02-22T04:24:19.185Z,99.90
2019-02-22T04:26:45.190Z,99.90
2019-02-22T04:29:11.207Z,99.90
2019-02-22T04:31:37.219Z,99.90
2019-02-22T04:34:03.534Z,99.90
2019-02-22T04:36:29.764Z,99.90
2019-02-22T04:38:55.774Z,99.90
2019-02-22T04:41:21.798Z,99.90
2019-02-22T04:43:48.051Z,99.90
2019-02-22T04:46:14.065Z,99.90
2019-02-22T04:48:40.105Z,99.90
2019-02-22T04:51:06.351Z,99.90
2019-02-22T04:53:32.370Z,99.90
2019-02-22T04:55:58.386Z,99.90
2019-02-22T04:58:24.423Z,99.90
2019-02-22T05:00:50.424Z,99.90
2019-02-22T05:03:16.435Z,99.90
2019-02-22T05:05:42.453Z,99.90
2019-02-22T05:08:08.527Z,99.90
2019-02-22T05:10:34.535Z,99.90
2019-02-22T05:13:00.546Z,99.90
2019-02-22T05:15:26.584Z,99.90
2019-02-22T05:17:52.600Z,99.90
2019-02-22T05:20:18.623Z,99.90
2019-02-22T05:22:44.627Z,99.90
2019-02-22T05:25:10.652Z,99.90
2019-02-22T05:27:36.677Z,99.90
2019-02-22T05:30:04.500Z,99.90
2019-02-22T05:32:30.510Z,99.90
2019-02-22T05:34:56.530Z,99.90
2019-02-22T05:37:22.530Z,99.90
2019-02-22T05:39:48.553Z,99.90
2019-02-22T05:42:22.550Z,99.90
2019-02-22T05:44:43.030Z,99.90
2019-02-22T05:47:09.044Z,99.90
2019-02-22T05:49:35.155Z,99.90
2019-02-22T05:52:01.187Z,99.90
2019-02-22T05:54:27.298Z,99.90
2019-02-22T05:56:55.108Z,99.90
2019-02-22T05:59:21.214Z,99.90
2019-02-22T06:01:47.257Z,99.90
2019-02-22T06:04:13.267Z,99.90
2019-02-22T06:06:39.288Z,99.90
2019-02-22T06:09:05.296Z,99.90
2019-02-22T06:11:31.330Z,99.90
2019-02-22T06:13:57.339Z,99.90
2019-02-22T06:16:23.580Z,99.90
2019-02-22T06:18:49.599Z,99.90
2019-02-22T06:21:15.664Z,99.90
2019-02-22T06:23:41.720Z,99.90
2019-02-22T06:26:07.757Z,99.90
2019-02-22T06:28:34.008Z,99.90
2019-02-22T06:31:00.019Z,99.90
2019-02-22T06:33:26.044Z,99.90
2019-02-22T06:35:52.142Z,99.90
2019-02-22T06:38:18.169Z,99.90
2019-02-22T06:40:44.206Z,99.90
2019-02-22T06:43:10.297Z,99.90
2019-02-22T06:45:36.308Z,99.90
2019-02-22T06:48:02.661Z,99.90
2019-02-22T06:52:56.596Z,99.90
2019-02-22T06:55:22.598Z,99.90
2019-02-22T06:57:48.615Z,99.90
2019-02-22T07:00:14.860Z,99.90
2019-02-22T07:02:40.889Z,99.90
2019-02-22T07:05:06.904Z,99.90
2019-02-22T07:07:32.940Z,99.90
2019-02-22T07:09:58.951Z,99.90
2019-02-22T07:12:29.380Z,99.90
2019-02-22T07:14:55.383Z,99.90
2019-02-22T07:17:21.493Z,99.90
2019-02-22T07:19:47.504Z,99.90
2019-02-22T07:22:13.514Z,99.90
2019-02-22T07:24:39.535Z,99.90
2019-02-22T07:27:05.546Z,99.90
2019-02-22T07:29:31.803Z,99.90
2019-02-22T07:32:05.835Z,99.90
2019-02-22T07:34:26.051Z,99.90
2019-02-22T07:36:52.068Z,99.90
2019-02-22T07:39:27.457Z,99.90
2019-02-22T07:41:46.468Z,99.90
2019-02-22T07:44:12.469Z,99.90
2019-02-22T07:46:38.731Z,99.90
2019-02-22T07:49:04.726Z,99.90
2019-02-22T07:51:30.980Z,99.90
2019-02-22T07:53:56.978Z,99.90
2019-02-22T07:56:23.001Z,99.90
2019-02-22T07:58:49.012Z,99.90
2019-02-22T08:01:15.011Z,99.90
2019-02-22T08:03:41.047Z,99.90
2019-02-22T08:06:07.099Z,99.90
2019-02-22T08:08:33.182Z,99.90
2019-02-22T08:10:59.264Z,99.90
2019-02-22T08:13:25.283Z,99.90
2019-02-22T08:15:51.281Z,99.90
2019-02-22T08:18:17.277Z,99.90
2019-02-22T08:20:43.309Z,99.90
2019-02-22T08:23:09.325Z,99.90
2019-02-22T08:25:35.599Z,99.90
2019-02-22T08:28:01.615Z,99.90
2019-02-22T08:30:27.609Z,99.90
2019-02-22T08:32:53.650Z,98.00
2019-02-22T08:35:19.653Z,95.90
2019-02-22T08:37:45.906Z,95.60
2019-02-22T08:40:11.901Z,94.90
2019-02-22T08:42:37.971Z,95.10
2019-02-22T08:45:06.636Z,94.80
2019-02-22T08:47:32.656Z,94.50
2019-02-22T08:49:58.668Z,93.00
2019-02-22T08:52:24.702Z,92.50
2019-02-22T08:54:50.730Z,90.50
2019-02-22T08:57:16.722Z,91.30
2019-02-22T08:59:42.971Z,91.70
2019-02-22T09:02:09.022Z,91.70
2019-02-22T09:04:35.099Z,90.20
2019-02-22T09:07:01.112Z,89.40
2019-02-22T09:09:27.363Z,86.90
2019-02-22T09:11:53.372Z,85.60
2019-02-22T09:14:19.627Z,85.70
2019-02-22T09:16:45.635Z,82.50
2019-02-22T09:19:11.882Z,81.40
2019-02-22T09:21:37.895Z,80.20
2019-02-22T09:24:03.938Z,79.90
2019-02-22T09:26:29.922Z,80.10
2019-02-22T09:28:55.974Z,81.50
2019-02-22T09:31:21.966Z,79.10
2019-02-22T09:33:48.199Z,79.10
2019-02-22T09:36:14.222Z,79.10
2019-02-22T09:38:40.230Z,80.40
2019-02-22T09:41:06.255Z,80.80
2019-02-22T09:43:32.311Z,81.00
2019-02-22T09:45:58.328Z,79.90
2019-02-22T09:48:24.339Z,79.40
2019-02-22T09:50:50.432Z,80.10
2019-02-22T09:53:16.438Z,80.70
2019-02-22T09:55:42.467Z,79.00
2019-02-22T09:58:08.694Z,75.30
2019-02-22T10:00:34.708Z,76.00
2019-02-22T10:03:00.722Z,76.10
2019-02-22T10:05:26.741Z,75.20
2019-02-22T10:07:53.001Z,76.00
2019-02-22T10:10:19.243Z,75.10
2019-02-22T10:12:45.279Z,75.10
2019-02-22T10:15:11.513Z,75.60
2019-02-22T10:17:37.815Z,74.80
2019-02-22T10:20:06.646Z,74.60
2019-02-22T10:22:32.651Z,73.20
2019-02-22T10:24:58.943Z,74.80
2019-02-22T10:27:24.959Z,75.10
2019-02-22T10:29:51.201Z,75.70
2019-02-22T10:32:17.430Z,76.60
2019-02-22T10:34:43.441Z,75.30
2019-02-22T10:37:09.455Z,72.70
2019-02-22T10:39:35.501Z,66.30
2019-02-22T10:42:01.595Z,61.80
2019-02-22T10:44:27.624Z,61.50
2019-02-22T10:46:53.640Z,61.60
2019-02-22T10:49:19.877Z,61.40
2019-02-22T10:51:45.889Z,61.40
2019-02-22T10:54:11.893Z,61.50
2019-02-22T10:56:39.220Z,61.10
2019-02-22T10:59:05.528Z,60.90
2019-02-22T11:01:31.555Z,60.90
2019-02-22T11:03:57.556Z,61.30
2019-02-22T11:06:23.572Z,61.20
2019-02-22T11:08:49.813Z,61.00
2019-02-22T11:11:15.835Z,61.80
2019-02-22T11:13:41.829Z,62.50
2019-02-22T11:16:07.938Z,62.50
2019-02-22T11:18:33.966Z,62.30
2019-02-22T11:21:00.207Z,61.70
2019-02-22T11:23:26.211Z,62.90
2019-02-22T11:25:52.231Z,62.70
2019-02-22T11:28:18.230Z,62.90
2019-02-22T11:30:44.482Z,61.80
2019-02-22T11:33:10.510Z,61.80
2019-02-22T11:35:36.777Z,61.60
2019-02-22T11:38:02.983Z,62.10
2019-02-22T11:40:29.001Z,61.20
2019-02-22T11:42:55.007Z,61.90
2019-02-22T11:45:21.046Z,62.10
2019-02-22T11:47:47.051Z,61.90
2019-02-22T11:50:13.071Z,62.40
2019-02-22T11:52:39.092Z,60.30
2019-02-22T11:55:08.025Z,59.80
2019-02-22T11:57:34.046Z,59.20
2019-02-22T12:00:00.153Z,58.70
2019-02-22T12:02:26.425Z,58.70
2019-02-22T12:04:52.418Z,59.60
2019-02-22T12:07:18.672Z,60.10
2019-02-22T12:09:44.916Z,59.20
2019-02-22T12:12:10.966Z,59.10
2019-02-22T12:14:36.977Z,59.30
2019-02-22T12:17:03.006Z,59.90
2019-02-22T12:19:29.004Z,60.00
2019-02-22T12:21:55.035Z,59.60
2019-02-22T12:24:21.291Z,60.20
2019-02-22T12:26:47.313Z,58.70
2019-02-22T12:29:13.310Z,58.70
2019-02-22T12:31:39.559Z,58.30
2019-02-22T12:34:05.668Z,58.50
2019-02-22T12:36:31.682Z,57.30
2019-02-22T12:38:57.682Z,57.80
2019-02-22T12:41:23.976Z,57.40
2019-02-22T12:43:50.115Z,56.60
2019-02-22T12:46:16.224Z,56.80
2019-02-22T12:48:42.227Z,56.80
2019-02-22T12:51:08.256Z,55.80
2019-02-22T12:53:34.250Z,55.80
2019-02-22T12:56:00.290Z,56.20
2019-02-22T12:58:26.520Z,56.60
2019-02-22T13:00:52.545Z,56.90
2019-02-22T13:03:18.549Z,56.60
2019-02-22T13:05:44.583Z,57.30
2019-02-22T13:08:10.580Z,57.20
2019-02-22T13:10:36.590Z,57.10
2019-02-22T13:13:05.963Z,56.50
2019-02-22T13:15:31.983Z,57.80
2019-02-22T13:17:59.190Z,60.50
2019-02-22T13:20:25.190Z,61.60
2019-02-22T13:22:51.224Z,62.80
2019-02-22T13:25:17.241Z,63.80
2019-02-22T13:27:43.370Z,64.60
2019-02-22T13:30:13.531Z,65.20
2019-02-22T13:32:39.923Z,65.90
2019-02-22T13:35:05.933Z,66.90
2019-02-22T13:37:32.327Z,67.80
2019-02-22T13:39:58.313Z,68.10
2019-02-22T13:42:25.319Z,68.40
2019-02-22T13:44:51.518Z,68.10
2019-02-22T13:47:17.748Z,66.40
2019-02-22T13:49:43.731Z,65.10
2019-02-22T13:52:09.752Z,64.70
2019-02-22T13:54:35.763Z,62.90
2019-02-22T13:57:02.520Z,62.30
2019-02-22T13:59:28.517Z,62.00
2019-02-22T14:01:54.537Z,61.40
2019-02-22T14:04:20.539Z,61.40
2019-02-22T14:06:46.561Z,61.00
2019-02-22T14:09:12.839Z,61.40
2019-02-22T14:11:39.154Z,61.80
2019-02-22T14:14:05.161Z,62.00
2019-02-22T14:16:31.183Z,61.90
2019-02-22T14:18:57.190Z,61.40
2019-02-22T14:21:26.939Z,62.00
2019-02-22T14:23:52.972Z,61.20
2019-02-22T14:26:18.989Z,61.30
2019-02-22T14:28:44.990Z,60.70
2019-02-22T14:31:11.012Z,61.70
2019-02-22T14:33:37.250Z,61.10
2019-02-22T14:36:03.255Z,60.90
2019-02-22T14:38:29.377Z,60.80
2019-02-22T14:40:55.362Z,59.90
2019-02-22T14:43:21.394Z,60.40
2019-02-22T14:45:50.845Z,59.80
2019-02-22T14:48:15.323Z,60.10
2019-02-22T14:50:41.330Z,60.10
2019-02-22T14:53:07.390Z,60.70
2019-02-22T14:55:33.429Z,60.70
2019-02-22T14:57:59.669Z,60.20
2019-02-22T15:00:25.685Z,60.80
2019-02-22T15:02:51.702Z,61.10
2019-02-22T15:05:17.711Z,61.50
2019-02-22T15:07:43.790Z,60.50
2019-02-22T15:10:10.619Z,61.10
2019-02-22T15:12:36.625Z,61.50
2019-02-22T15:15:05.735Z,62.00
2019-02-22T15:17:33.655Z,62.10
2019-02-22T15:19:59.652Z,62.30
2019-02-22T15:22:25.890Z,62.40
2019-02-22T15:24:53.668Z,62.40
2019-02-22T15:27:19.810Z,62.30
2019-02-22T15:29:45.817Z,62.50
2019-02-22T15:32:11.810Z,62.70
2019-02-22T15:34:37.818Z,62.90
2019-02-22T15:37:03.821Z,63.00
2019-02-22T15:39:29.869Z,62.90
2019-02-22T15:41:55.967Z,63.00
2019-02-22T15:44:21.994Z,62.90
2019-02-22T15:46:48.075Z,63.20
2019-02-22T15:49:14.107Z,64.00
2019-02-22T15:51:40.335Z,65.00
2019-02-22T15:54:06.662Z,65.30
2019-02-22T15:56:32.718Z,65.80
2019-02-22T15:58:58.726Z,66.00
2019-02-22T16:01:24.748Z,66.50
2019-02-22T16:04:04.297Z,67.30
2019-02-22T16:06:32.344Z,67.00
2019-02-22T16:08:58.662Z,67.50
2019-02-22T16:11:24.667Z,68.20
2019-02-22T16:13:50.685Z,68.30
2019-02-22T16:16:23.243Z,68.60
2019-02-22T16:18:44.602Z,68.80
2019-02-22T16:21:10.601Z,69.10
2019-02-22T16:23:36.615Z,69.60
2019-02-22T16:26:02.615Z,70.80
2019-02-22T16:28:28.619Z,70.60
2019-02-22T16:30:54.639Z,70.80
2019-02-22T16:33:20.729Z,70.70
2019-02-22T16:35:47.065Z,70.20
2019-02-22T16:38:13.159Z,70.20
2019-02-22T16:40:39.195Z,71.10
2019-02-22T16:43:05.193Z,71.00
2019-02-22T16:45:31.210Z,71.10
2019-02-22T16:47:57.234Z,71.20
2019-02-22T16:50:23.242Z,71.00
2019-02-22T16:52:49.483Z,71.10
2019-02-22T16:55:15.739Z,71.70
2019-02-22T16:57:41.737Z,72.20
2019-02-22T17:00:12.137Z,72.00
2019-02-22T17:02:38.140Z,72.90
2019-02-22T17:05:05.859Z,73.90
2019-02-22T17:07:32.099Z,74.90
2019-02-22T17:09:58.116Z,75.80
2019-02-22T17:12:24.119Z,75.90
2019-02-22T17:14:50.386Z,75.90
2019-02-22T17:17:16.373Z,76.70
2019-02-22T17:19:42.369Z,77.50
2019-02-22T17:22:09.712Z,77.90
2019-02-22T17:24:36.009Z,79.00
2019-02-22T17:27:02.242Z,80.50
2019-02-22T17:29:28.245Z,82.50
2019-02-22T17:31:54.263Z,83.70
2019-02-22T17:34:20.273Z,84.80
2019-02-22T17:36:46.284Z,87.70
2019-02-22T17:39:12.519Z,88.40
2019-02-22T17:41:38.535Z,88.40
2019-02-22T17:44:04.543Z,89.20
2019-02-22T17:46:30.798Z,90.10
2019-02-22T17:48:57.087Z,90.80
2019-02-22T17:51:23.335Z,91.50
2019-02-22T17:53:49.339Z,92.10
2019-02-22T17:56:15.349Z,92.50
2019-02-22T17:58:41.358Z,92.90
2019-02-22T18:01:07.595Z,92.60
2019-02-22T18:03:33.703Z,92.30
2019-02-22T18:05:59.728Z,92.90
2019-02-22T18:08:25.735Z,93.00
2019-02-22T18:10:51.738Z,93.80
2019-02-22T18:13:17.758Z,94.20
2019-02-22T18:15:44.417Z,94.20
2019-02-22T18:18:10.429Z,95.20
2019-02-22T18:20:36.435Z,95.10
2019-02-22T18:23:02.457Z,95.60
2019-02-22T18:25:28.454Z,95.90
2019-02-22T18:27:54.472Z,96.40
2019-02-22T18:30:21.775Z,96.70
2019-02-22T18:32:47.810Z,97.10
2019-02-22T18:35:14.050Z,97.90
2019-02-22T18:37:40.050Z,98.60
2019-02-22T18:40:09.011Z,99.00
2019-02-22T18:42:34.994Z,98.70
2019-02-22T18:45:01.015Z,98.40
2019-02-22T18:47:27.027Z,98.70
2019-02-22T18:49:53.059Z,98.30
2019-02-22T18:52:19.067Z,99.30
2019-02-22T18:54:46.244Z,99.90
2019-02-22T18:57:12.389Z,99.90
2019-02-22T18:59:38.401Z,99.90
2019-02-22T19:02:04.497Z,99.90
2019-02-22T19:04:30.521Z,99.90
2019-02-22T19:06:56.750Z,99.90
2019-02-22T19:09:22.758Z,99.90
2019-02-22T19:11:48.775Z,99.90
2019-02-22T19:14:14.777Z,99.90
2019-02-22T19:16:40.777Z,99.90
2019-02-22T19:19:06.799Z,99.90
2019-02-22T19:21:32.804Z,99.90
2019-02-22T19:23:58.801Z,99.90
2019-02-22T19:26:24.818Z,99.90
2019-02-22T19:28:50.826Z,99.90
2019-02-22T19:31:17.050Z,99.90
2019-02-22T19:33:43.296Z,99.90
2019-02-22T19:36:09.316Z,99.90
2019-02-22T19:38:35.334Z,99.90
2019-02-22T19:41:01.357Z,99.90
2019-02-22T19:43:27.592Z,99.90
2019-02-22T19:45:53.713Z,99.90
2019-02-22T19:48:19.714Z,99.90
2019-02-22T19:50:45.978Z,99.90
2019-02-22T19:53:11.983Z,99.90
2019-02-22T19:55:37.989Z,99.90
2019-02-22T19:58:04.003Z,99.90
2019-02-22T20:00:30.277Z,99.90
2019-02-22T20:02:56.284Z,99.90
2019-02-22T20:05:22.277Z,99.90
2019-02-22T20:07:48.303Z,99.90
2019-02-22T20:10:18.754Z,99.90
2019-02-22T20:12:44.780Z,99.90
2019-02-22T20:15:15.141Z,99.90
2019-02-22T20:17:50.243Z,99.90
2019-02-22T20:20:11.083Z,99.90
2019-02-22T20:22:37.108Z,99.90
2019-02-22T20:25:04.427Z,99.90
2019-02-22T20:27:30.452Z,99.90
2019-02-22T20:29:56.476Z,99.90
2019-02-22T20:32:22.510Z,99.90
2019-02-22T20:34:48.533Z,99.90
2019-02-22T20:37:14.655Z,99.90
2019-02-22T20:39:40.752Z,99.90
2019-02-22T20:42:06.775Z,99.90
2019-02-22T20:44:32.779Z,99.90
2019-02-22T20:46:58.822Z,99.90
2019-02-22T20:49:24.828Z,99.90
2019-02-22T20:51:50.942Z,99.90
2019-02-22T20:54:16.963Z,99.90
2019-02-22T20:56:42.977Z,99.90
2019-02-22T20:59:09.002Z,99.90
2019-02-22T21:01:35.002Z,99.90
2019-02-22T21:04:01.028Z,99.90
2019-02-22T21:06:27.045Z,99.90
2019-02-22T21:08:53.075Z,99.90
2019-02-22T21:11:19.142Z,99.90
2019-02-22T21:13:45.141Z,99.90
2019-02-22T21:16:11.164Z,99.90
2019-02-22T21:18:37.187Z,99.90
2019-02-22T21:21:03.190Z,99.90
2019-02-22T21:23:29.477Z,99.90
2019-02-22T21:25:55.490Z,99.90
2019-02-22T21:28:21.510Z,99.90
2019-02-22T21:30:47.596Z,99.90
2019-02-22T21:33:13.887Z,99.90
2019-02-22T21:35:39.924Z,99.90
2019-02-22T21:38:05.918Z,99.90
2019-02-22T21:40:31.947Z,99.90
2019-02-22T21:42:57.977Z,99.90
2019-02-22T21:45:23.988Z,99.90
2019-02-22T21:47:54.886Z,99.90
2019-02-22T21:50:17.931Z,99.90
2019-02-22T21:52:44.691Z,99.90
2019-02-22T21:55:11.943Z,99.90
2019-02-22T21:57:38.021Z,99.90
2019-02-22T22:00:18.336Z,99.90
2019-02-22T22:02:44.614Z,99.90
2019-02-22T22:05:10.717Z,99.90
2019-02-22T22:07:36.957Z,99.90
2019-02-22T22:10:05.475Z,99.90
2019-02-22T22:12:31.499Z,99.90
2019-02-22T22:14:57.734Z,99.90
2019-02-22T22:17:23.746Z,99.90
2019-02-22T22:19:49.771Z,99.90
2019-02-22T22:22:15.780Z,99.90
2019-02-22T22:24:41.816Z,99.90
2019-02-22T22:27:07.900Z,99.90
2019-02-22T22:29:33.922Z,99.90
2019-02-22T22:32:00.214Z,99.90
2019-02-22T22:34:26.246Z,99.90
2019-02-22T22:36:52.497Z,99.90
2019-02-22T22:39:18.786Z,99.90
2019-02-22T22:41:45.015Z,99.90
2019-02-22T22:44:11.046Z,99.90
2019-02-22T22:46:37.411Z,99.90
2019-02-22T22:49:03.640Z,99.90
2019-02-22T22:51:29.664Z,99.90
2019-02-22T22:53:55.933Z,99.90
2019-02-22T22:56:22.008Z,99.90
2019-02-22T22:58:48.027Z,99.90
2019-02-22T23:01:15.234Z,99.90
2019-02-22T23:03:41.346Z,99.90
2019-02-22T23:06:07.383Z,99.90
2019-02-22T23:08:33.408Z,99.90
2019-02-22T23:10:59.403Z,99.90
2019-02-22T23:13:25.417Z,99.90
2019-02-22T23:15:51.428Z,99.90
2019-02-22T23:18:17.699Z,99.90
2019-02-22T23:20:43.945Z,99.90
2019-02-22T23:23:09.951Z,99.90
2019-02-22T23:25:35.969Z,99.90
2019-02-22T23:28:01.995Z,99.90
2019-02-22T23:30:28.012Z,99.90
2019-02-22T23:32:54.026Z,99.90
2019-02-22T23:35:20.043Z,99.90
2019-02-22T23:37:46.094Z,99.90
2019-02-22T23:40:12.308Z,99.90
2019-02-22T23:42:38.333Z,99.90
2019-02-22T23:45:05.385Z,99.90
2019-02-22T23:47:31.383Z,99.90
2019-02-22T23:49:58.266Z,99.90
2019-02-22T23:52:24.299Z,99.90
2019-02-22T23:54:50.331Z,99.90
2019-02-22T23:57:16.351Z,99.90
2019-02-22T23:59:42.611Z,99.90
